sensor_id;sensor_type;location;lat;lon;timestamp;pressure;altitude;pressure_sealevel;temperature;humidity
5872;BME280;2962;51.312;7.378;2022-08-18T00:00:33;97242.78;;;17.08;100.00
5872;BME280;2962;51.312;7.378;2022-08-18T00:03:03;97242.53;;;16.99;100.00
5872;BME280;2962;51.312;7.378;2022-08-18T00:05:29;97239.41;;;16.97;100.00
5872;BME280;2962;51.312;7.378;2022-08-18T00:07:56;97231.25;;;16.90;100.00
5872;BME280;2962;51.312;7.378;2022-08-18T00:10:21;97244.28;;;16.86;100.00
5872;BME280;2962;51.312;7.378;2022-08-18T00:12:46;97241.56;;;16.82;100.00
5872;BME280;2962;51.312;7.378;2022-08-18T00:15:14;97238.88;;;16.79;100.00
5872;BME280;2962;51.312;7.378;2022-08-18T00:17:40;97237.31;;;16.78;100.00
5872;BME280;2962;51.312;7.378;2022-08-18T00:20:09;97238.88;;;16.79;100.00
5872;BME280;2962;51.312;7.378;2022-08-18T00:22:36;97231.34;;;16.83;100.00
5872;BME280;2962;51.312;7.378;2022-08-18T00:25:02;97234.09;;;17.10;100.00
5872;BME280;2962;51.312;7.378;2022-08-18T00:27:29;97234.44;;;17.39;100.00
5872;BME280;2962;51.312;7.378;2022-08-18T00:30:00;97230.84;;;17.42;100.00
5872;BME280;2962;51.312;7.378;2022-08-18T00:32:38;97230.66;;;17.29;100.00
5872;BME280;2962;51.312;7.378;2022-08-18T00:35:11;97229.22;;;17.45;100.00
5872;BME280;2962;51.312;7.378;2022-08-18T00:37:38;97225.69;;;17.44;100.00
5872;BME280;2962;51.312;7.378;2022-08-18T00:40:05;97227.25;;;17.45;100.00
5872;BME280;2962;51.312;7.378;2022-08-18T00:42:32;97225.41;;;17.39;100.00
5872;BME280;2962;51.312;7.378;2022-08-18T00:45:00;97220.84;;;17.52;100.00
5872;BME280;2962;51.312;7.378;2022-08-18T00:47:27;97218.78;;;17.56;100.00
5872;BME280;2962;51.312;7.378;2022-08-18T00:49:53;97216.38;;;17.38;100.00
5872;BME280;2962;51.312;7.378;2022-08-18T00:52:19;97217.69;;;17.53;100.00
5872;BME280;2962;51.312;7.378;2022-08-18T00:54:47;97213.94;;;17.64;100.00
5872;BME280;2962;51.312;7.378;2022-08-18T00:57:13;97217.38;;;17.48;100.00
5872;BME280;2962;51.312;7.378;2022-08-18T00:59:44;97215.88;;;17.43;100.00
5872;BME280;2962;51.312;7.378;2022-08-18T01:02:19;97213.41;;;17.25;100.00
5872;BME280;2962;51.312;7.378;2022-08-18T01:04:57;97198.25;;;17.14;100.00
5872;BME280;2962;51.312;7.378;2022-08-18T01:07:29;97216.69;;;17.17;100.00
5872;BME280;2962;51.312;7.378;2022-08-18T01:09:57;97209.41;;;17.30;100.00
5872;BME280;2962;51.312;7.378;2022-08-18T01:12:24;97203.53;;;17.28;100.00
5872;BME280;2962;51.312;7.378;2022-08-18T01:14:50;97204.03;;;17.46;100.00
5872;BME280;2962;51.312;7.378;2022-08-18T01:17:15;97196.75;;;17.56;100.00
5872;BME280;2962;51.312;7.378;2022-08-18T01:19:59;97184.19;;;17.55;100.00
5872;BME280;2962;51.312;7.378;2022-08-18T01:22:58;97189.53;;;17.66;100.00
5872;BME280;2962;51.312;7.378;2022-08-18T01:25:24;97186.69;;;17.69;100.00
5872;BME280;2962;51.312;7.378;2022-08-18T01:28:08;97200.78;;;17.75;100.00
5872;BME280;2962;51.312;7.378;2022-08-18T01:30:46;97203.16;;;17.73;100.00
5872;BME280;2962;51.312;7.378;2022-08-18T01:33:13;97200.88;;;17.68;100.00
5872;BME280;2962;51.312;7.378;2022-08-18T01:35:39;97204.34;;;17.72;100.00
5872;BME280;2962;51.312;7.378;2022-08-18T01:38:07;97192.41;;;17.58;100.00
5872;BME280;2962;51.312;7.378;2022-08-18T01:40:32;97191.25;;;17.56;100.00
5872;BME280;2962;51.312;7.378;2022-08-18T01:42:58;97194.19;;;17.69;100.00
5872;BME280;2962;51.312;7.378;2022-08-18T01:45:23;97193.22;;;17.55;100.00
5872;BME280;2962;51.312;7.378;2022-08-18T01:47:49;97202.22;;;17.60;100.00
5872;BME280;2962;51.312;7.378;2022-08-18T01:50:16;97215.63;;;17.57;100.00
5872;BME280;2962;51.312;7.378;2022-08-18T01:52:41;97207.50;;;17.50;100.00
5872;BME280;2962;51.312;7.378;2022-08-18T01:55:07;97218.63;;;17.43;100.00
5872;BME280;2962;51.312;7.378;2022-08-18T01:57:32;97213.00;;;17.27;100.00
5872;BME280;2962;51.312;7.378;2022-08-18T01:59:59;97223.25;;;17.26;100.00
5872;BME280;2962;51.312;7.378;2022-08-18T02:02:27;97227.38;;;17.15;100.00
5872;BME280;2962;51.312;7.378;2022-08-18T02:04:59;97223.78;;;16.91;100.00
5872;BME280;2962;51.312;7.378;2022-08-18T02:07:27;97224.09;;;16.66;100.00
5872;BME280;2962;51.312;7.378;2022-08-18T02:09:53;97225.44;;;16.54;100.00
5872;BME280;2962;51.312;7.378;2022-08-18T02:12:18;97225.41;;;16.57;100.00
5872;BME280;2962;51.312;7.378;2022-08-18T02:14:44;97229.38;;;16.53;100.00
5872;BME280;2962;51.312;7.378;2022-08-18T02:17:10;97221.63;;;16.44;100.00
5872;BME280;2962;51.312;7.378;2022-08-18T02:19:39;97208.03;;;16.33;100.00
5872;BME280;2962;51.312;7.378;2022-08-18T02:22:07;97213.56;;;16.30;100.00
5872;BME280;2962;51.312;7.378;2022-08-18T02:24:33;97222.13;;;16.35;100.00
5872;BME280;2962;51.312;7.378;2022-08-18T02:26:59;97213.78;;;16.43;100.00
5872;BME280;2962;51.312;7.378;2022-08-18T02:29:24;97199.97;;;16.50;100.00
5872;BME280;2962;51.312;7.378;2022-08-18T02:31:49;97199.50;;;16.55;100.00
5872;BME280;2962;51.312;7.378;2022-08-18T02:34:15;97199.97;;;16.50;100.00
5872;BME280;2962;51.312;7.378;2022-08-18T02:36:41;97202.56;;;16.30;100.00
5872;BME280;2962;51.312;7.378;2022-08-18T02:39:06;97215.59;;;16.26;100.00
5872;BME280;2962;51.312;7.378;2022-08-18T02:41:31;97218.66;;;16.31;100.00
5872;BME280;2962;51.312;7.378;2022-08-18T02:43:58;97217.97;;;16.24;100.00
5872;BME280;2962;51.312;7.378;2022-08-18T02:46:24;97218.88;;;16.10;100.00
5872;BME280;2962;51.312;7.378;2022-08-18T02:48:49;97213.50;;;16.03;100.00
5872;BME280;2962;51.312;7.378;2022-08-18T02:51:17;97219.06;;;15.96;100.00
5872;BME280;2962;51.312;7.378;2022-08-18T02:53:44;97216.81;;;15.83;100.00
5872;BME280;2962;51.312;7.378;2022-08-18T02:56:16;97223.13;;;15.84;100.00
5872;BME280;2962;51.312;7.378;2022-08-18T02:58:48;97217.16;;;15.89;100.00
5872;BME280;2962;51.312;7.378;2022-08-18T03:01:14;97225.81;;;15.88;100.00
5872;BME280;2962;51.312;7.378;2022-08-18T03:03:39;97220.66;;;15.93;100.00
5872;BME280;2962;51.312;7.378;2022-08-18T03:06:05;97220.19;;;15.98;100.00
5872;BME280;2962;51.312;7.378;2022-08-18T03:08:30;97224.34;;;16.14;100.00
5872;BME280;2962;51.312;7.378;2022-08-18T03:10:56;97217.69;;;16.15;100.00
5872;BME280;2962;51.312;7.378;2022-08-18T03:13:21;97211.84;;;16.09;100.00
5872;BME280;2962;51.312;7.378;2022-08-18T03:15:47;97214.09;;;16.18;100.00
5872;BME280;2962;51.312;7.378;2022-08-18T03:18:12;97209.09;;;16.09;100.00
5872;BME280;2962;51.312;7.378;2022-08-18T03:20:38;97202.44;;;16.06;100.00
5872;BME280;2962;51.312;7.378;2022-08-18T03:23:04;97204.56;;;15.95;100.00
5872;BME280;2962;51.312;7.378;2022-08-18T03:25:29;97199.56;;;15.83;100.00
5872;BME280;2962;51.312;7.378;2022-08-18T03:27:55;97204.16;;;15.93;100.00
5872;BME280;2962;51.312;7.378;2022-08-18T03:30:20;97197.41;;;16.01;100.00
5872;BME280;2962;51.312;7.378;2022-08-18T03:32:47;97207.19;;;16.02;100.00
5872;BME280;2962;51.312;7.378;2022-08-18T03:35:13;97203.94;;;16.15;100.00
5872;BME280;2962;51.312;7.378;2022-08-18T03:37:39;97208.88;;;16.27;100.00
5872;BME280;2962;51.312;7.378;2022-08-18T03:40:05;97200.72;;;16.20;100.00
5872;BME280;2962;51.312;7.378;2022-08-18T03:42:30;97208.38;;;16.35;100.00
5872;BME280;2962;51.312;7.378;2022-08-18T03:44:55;97209.50;;;16.42;100.00
5872;BME280;2962;51.312;7.378;2022-08-18T03:47:21;97201.69;;;16.36;100.00
5872;BME280;2962;51.312;7.378;2022-08-18T03:49:46;97211.94;;;16.32;100.00
5872;BME280;2962;51.312;7.378;2022-08-18T03:52:12;97202.66;;;16.23;100.00
5872;BME280;2962;51.312;7.378;2022-08-18T03:54:38;97189.38;;;16.14;100.00
5872;BME280;2962;51.312;7.378;2022-08-18T03:57:07;97200.69;;;16.23;100.00
5872;BME280;2962;51.312;7.378;2022-08-18T03:59:33;97201.28;;;16.07;100.00
5872;BME280;2962;51.312;7.378;2022-08-18T04:02:01;97195.81;;;16.04;100.00
5872;BME280;2962;51.312;7.378;2022-08-18T04:04:28;97204.41;;;16.06;100.00
5872;BME280;2962;51.312;7.378;2022-08-18T04:07:01;97200.88;;;16.05;100.00
5872;BME280;2962;51.312;7.378;2022-08-18T04:09:30;97206.06;;;16.00;100.00
5872;BME280;2962;51.312;7.378;2022-08-18T04:11:57;97210.06;;;15.95;100.00
5872;BME280;2962;51.312;7.378;2022-08-18T04:14:24;97207.72;;;15.90;100.00
5872;BME280;2962;51.312;7.378;2022-08-18T04:16:51;97213.69;;;15.85;100.00
5872;BME280;2962;51.312;7.378;2022-08-18T04:19:17;97214.03;;;15.87;100.00
5872;BME280;2962;51.312;7.378;2022-08-18T04:21:43;97212.47;;;15.86;100.00
5872;BME280;2962;51.312;7.378;2022-08-18T04:24:10;97214.69;;;15.98;100.00
5872;BME280;2962;51.312;7.378;2022-08-18T04:26:42;97213.06;;;16.04;100.00
5872;BME280;2962;51.312;7.378;2022-08-18T04:29:09;97218.06;;;16.13;100.00
5872;BME280;2962;51.312;7.378;2022-08-18T04:31:35;97226.31;;;16.13;100.00
5872;BME280;2962;51.312;7.378;2022-08-18T04:34:01;97220.88;;;16.09;100.00
5872;BME280;2962;51.312;7.378;2022-08-18T04:36:28;97227.75;;;16.25;100.00
5872;BME280;2962;51.312;7.378;2022-08-18T04:38:55;97225.53;;;16.13;100.00
5872;BME280;2962;51.312;7.378;2022-08-18T04:41:21;97233.31;;;16.18;100.00
5872;BME280;2962;51.312;7.378;2022-08-18T04:43:50;97235.13;;;16.31;100.00
5872;BME280;2962;51.312;7.378;2022-08-18T04:46:16;97248.56;;;16.26;100.00
5872;BME280;2962;51.312;7.378;2022-08-18T04:48:42;97243.63;;;16.44;100.00
5872;BME280;2962;51.312;7.378;2022-08-18T04:51:09;97242.94;;;16.36;100.00
5872;BME280;2962;51.312;7.378;2022-08-18T04:53:35;97229.25;;;16.29;100.00
5872;BME280;2962;51.312;7.378;2022-08-18T04:56:19;97245.72;;;16.33;100.00
5872;BME280;2962;51.312;7.378;2022-08-18T04:59:00;97247.69;;;16.32;100.00
5872;BME280;2962;51.312;7.378;2022-08-18T05:01:28;97240.91;;;16.41;100.00
5872;BME280;2962;51.312;7.378;2022-08-18T05:03:56;97246.00;;;16.42;100.00
5872;BME280;2962;51.312;7.378;2022-08-18T05:06:24;97243.34;;;16.35;100.00
5872;BME280;2962;51.312;7.378;2022-08-18T05:08:56;97247.44;;;16.54;100.00
5872;BME280;2962;51.312;7.378;2022-08-18T05:11:22;97255.19;;;16.63;100.00
5872;BME280;2962;51.312;7.378;2022-08-18T05:13:48;97246.78;;;16.77;100.00
5872;BME280;2962;51.312;7.378;2022-08-18T05:16:16;97247.81;;;16.87;100.00
5872;BME280;2962;51.312;7.378;2022-08-18T05:18:41;97236.06;;;16.82;100.00
5872;BME280;2962;51.312;7.378;2022-08-18T05:21:07;97244.56;;;16.95;100.00
5872;BME280;2962;51.312;7.378;2022-08-18T05:23:35;97244.66;;;16.88;100.00
5872;BME280;2962;51.312;7.378;2022-08-18T05:26:02;97249.22;;;16.68;100.00
5872;BME280;2962;51.312;7.378;2022-08-18T05:28:29;97253.81;;;16.78;100.00
5872;BME280;2962;51.312;7.378;2022-08-18T05:30:54;97257.03;;;16.73;100.00
5872;BME280;2962;51.312;7.378;2022-08-18T05:33:21;97261.56;;;16.87;100.00
5872;BME280;2962;51.312;7.378;2022-08-18T05:35:49;97256.84;;;16.87;100.00
5872;BME280;2962;51.312;7.378;2022-08-18T05:41:08;97244.44;;;16.72;100.00
5872;BME280;2962;51.312;7.378;2022-08-18T05:43:36;97251.97;;;16.68;100.00
5872;BME280;2962;51.312;7.378;2022-08-18T05:46:04;97257.09;;;16.66;100.00
5872;BME280;2962;51.312;7.378;2022-08-18T05:48:31;97257.56;;;16.60;100.00
5872;BME280;2962;51.312;7.378;2022-08-18T05:50:57;97253.13;;;16.70;100.00
5872;BME280;2962;51.312;7.378;2022-08-18T05:53:27;97268.03;;;16.73;100.00
5872;BME280;2962;51.312;7.378;2022-08-18T05:56:16;97275.84;;;16.78;100.00
5872;BME280;2962;51.312;7.378;2022-08-18T05:59:02;97271.16;;;16.71;100.00
5872;BME280;2962;51.312;7.378;2022-08-18T06:01:33;97278.28;;;16.69;100.00
5872;BME280;2962;51.312;7.378;2022-08-18T06:04:10;97267.41;;;16.58;100.00
5872;BME280;2962;51.312;7.378;2022-08-18T06:06:41;97284.47;;;16.80;100.00
5872;BME280;2962;51.312;7.378;2022-08-18T06:09:19;97284.91;;;16.75;100.00
5872;BME280;2962;51.312;7.378;2022-08-18T06:11:46;97282.50;;;16.80;100.00
5872;BME280;2962;51.312;7.378;2022-08-18T06:14:12;97286.84;;;16.78;100.00
5872;BME280;2962;51.312;7.378;2022-08-18T06:17:17;97294.28;;;16.81;100.00
5872;BME280;2962;51.312;7.378;2022-08-18T06:19:58;97299.41;;;16.79;100.00
5872;BME280;2962;51.312;7.378;2022-08-18T06:25:12;97295.94;;;16.71;100.00
5872;BME280;2962;51.312;7.378;2022-08-18T06:27:56;97305.38;;;16.70;100.00
5872;BME280;2962;51.312;7.378;2022-08-18T06:30:47;97301.84;;;16.70;100.00
5872;BME280;2962;51.312;7.378;2022-08-18T06:33:48;97307.09;;;16.60;100.00
5872;BME280;2962;51.312;7.378;2022-08-18T06:36:33;97310.09;;;16.70;100.00
5872;BME280;2962;51.312;7.378;2022-08-18T06:39:13;97310.66;;;16.57;100.00
5872;BME280;2962;51.312;7.378;2022-08-18T06:41:48;97315.19;;;16.71;100.00
5872;BME280;2962;51.312;7.378;2022-08-18T06:44:24;97320.69;;;16.75;100.00
5872;BME280;2962;51.312;7.378;2022-08-18T06:46:58;97318.22;;;16.84;100.00
5872;BME280;2962;51.312;7.378;2022-08-18T06:49:50;97318.13;;;16.91;100.00
5872;BME280;2962;51.312;7.378;2022-08-18T06:52:36;97314.22;;;16.89;100.00
5872;BME280;2962;51.312;7.378;2022-08-18T06:55:07;97315.13;;;17.09;100.00
5872;BME280;2962;51.312;7.378;2022-08-18T06:57:37;97313.25;;;17.29;100.00
5872;BME280;2962;51.312;7.378;2022-08-18T07:00:19;97317.53;;;17.34;100.00
5872;BME280;2962;51.312;7.378;2022-08-18T07:03:08;97320.25;;;17.38;100.00
5872;BME280;2962;51.312;7.378;2022-08-18T07:05:35;97316.34;;;17.35;100.00
5872;BME280;2962;51.312;7.378;2022-08-18T07:08:09;97324.22;;;17.33;100.00
5872;BME280;2962;51.312;7.378;2022-08-18T07:10:38;97322.19;;;17.37;100.00
5872;BME280;2962;51.312;7.378;2022-08-18T07:13:20;97313.00;;;17.47;100.00
5872;BME280;2962;51.312;7.378;2022-08-18T07:15:48;97310.97;;;17.51;100.00
5872;BME280;2962;51.312;7.378;2022-08-18T07:18:20;97307.97;;;17.42;100.00
5872;BME280;2962;51.312;7.378;2022-08-18T07:20:51;97307.44;;;17.51;100.00
5872;BME280;2962;51.312;7.378;2022-08-18T07:23:29;97308.94;;;17.55;100.00
5872;BME280;2962;51.312;7.378;2022-08-18T07:26:11;97319.59;;;17.53;100.00
5872;BME280;2962;51.312;7.378;2022-08-18T07:29:11;97303.06;;;17.53;100.00
5872;BME280;2962;51.312;7.378;2022-08-18T07:34:09;97304.78;;;17.44;100.00
5872;BME280;2962;51.312;7.378;2022-08-18T07:36:43;97305.94;;;17.46;100.00
5872;BME280;2962;51.312;7.378;2022-08-18T07:39:17;97301.16;;;17.74;100.00
5872;BME280;2962;51.312;7.378;2022-08-18T07:41:51;97299.22;;;17.71;100.00
5872;BME280;2962;51.312;7.378;2022-08-18T07:44:39;97296.34;;;17.81;100.00
5872;BME280;2962;51.312;7.378;2022-08-18T07:47:16;97293.81;;;17.91;100.00
5872;BME280;2962;51.312;7.378;2022-08-18T07:49:43;97288.94;;;17.98;100.00
5872;BME280;2962;51.312;7.378;2022-08-18T07:54:57;97300.63;;;18.06;100.00
5872;BME280;2962;51.312;7.378;2022-08-18T08:00:22;97310.03;;;18.09;100.00
5872;BME280;2962;51.312;7.378;2022-08-18T08:02:57;97295.91;;;18.07;100.00
5872;BME280;2962;51.312;7.378;2022-08-18T08:05:46;97285.81;;;18.20;100.00
5872;BME280;2962;51.312;7.378;2022-08-18T08:08:19;97283.06;;;18.20;100.00
5872;BME280;2962;51.312;7.378;2022-08-18T08:14:00;97315.50;;;18.32;100.00
5872;BME280;2962;51.312;7.378;2022-08-18T08:16:47;97320.06;;;18.62;100.00
5872;BME280;2962;51.312;7.378;2022-08-18T08:22:34;97306.84;;;18.93;100.00
5872;BME280;2962;51.312;7.378;2022-08-18T08:25:10;97298.59;;;19.10;100.00
5872;BME280;2962;51.312;7.378;2022-08-18T08:27:51;97297.06;;;19.25;100.00
5872;BME280;2962;51.312;7.378;2022-08-18T08:30:24;97285.34;;;19.54;100.00
5872;BME280;2962;51.312;7.378;2022-08-18T08:38:11;97297.53;;;19.89;100.00
5872;BME280;2962;51.312;7.378;2022-08-18T08:40:53;97293.13;;;19.75;100.00
5872;BME280;2962;51.312;7.378;2022-08-18T08:43:26;97299.94;;;19.54;100.00
5872;BME280;2962;51.312;7.378;2022-08-18T08:46:18;97301.25;;;19.49;100.00
5872;BME280;2962;51.312;7.378;2022-08-18T08:48:53;97294.34;;;19.58;100.00
5872;BME280;2962;51.312;7.378;2022-08-18T08:51:37;97305.16;;;19.68;100.00
5872;BME280;2962;51.312;7.378;2022-08-18T08:54:13;97305.84;;;19.72;100.00
5872;BME280;2962;51.312;7.378;2022-08-18T08:56:44;97308.94;;;19.74;100.00
5872;BME280;2962;51.312;7.378;2022-08-18T08:59:13;97320.28;;;19.80;100.00
5872;BME280;2962;51.312;7.378;2022-08-18T09:01:45;97326.81;;;19.86;100.00
5872;BME280;2962;51.312;7.378;2022-08-18T09:04:23;97324.91;;;19.50;100.00
5872;BME280;2962;51.312;7.378;2022-08-18T09:09:53;97329.97;;;19.52;100.00
5872;BME280;2962;51.312;7.378;2022-08-18T09:15:18;97328.63;;;19.60;100.00
5872;BME280;2962;51.312;7.378;2022-08-18T09:20:35;97323.53;;;20.37;100.00
5872;BME280;2962;51.312;7.378;2022-08-18T09:23:10;97315.47;;;21.01;100.00
5872;BME280;2962;51.312;7.378;2022-08-18T09:28:51;97294.34;;;21.58;100.00
5872;BME280;2962;51.312;7.378;2022-08-18T09:31:21;97290.53;;;22.25;100.00
5872;BME280;2962;51.312;7.378;2022-08-18T09:34:48;97292.75;;;22.52;100.00
5872;BME280;2962;51.312;7.378;2022-08-18T09:39:43;97302.97;;;22.99;100.00
5872;BME280;2962;51.312;7.378;2022-08-18T09:42:47;97298.31;;;22.96;100.00
5872;BME280;2962;51.312;7.378;2022-08-18T09:53:13;97301.22;;;22.92;100.00
5872;BME280;2962;51.312;7.378;2022-08-18T09:55:51;97306.03;;;22.92;100.00
5872;BME280;2962;51.312;7.378;2022-08-18T09:58:46;97311.81;;;22.84;100.00
5872;BME280;2962;51.312;7.378;2022-08-18T10:01:31;97304.63;;;22.52;100.00
5872;BME280;2962;51.312;7.378;2022-08-18T10:04:31;97297.34;;;22.46;100.00
5872;BME280;2962;51.312;7.378;2022-08-18T10:07:18;97313.16;;;22.58;100.00
5872;BME280;2962;51.312;7.378;2022-08-18T10:12:41;97305.41;;;22.97;100.00
5872;BME280;2962;51.312;7.378;2022-08-18T10:15:38;97304.53;;;23.00;100.00
5872;BME280;2962;51.312;7.378;2022-08-18T10:18:20;97291.38;;;23.31;100.00
5872;BME280;2962;51.312;7.378;2022-08-18T10:28:57;97287.09;;;23.39;100.00
5872;BME280;2962;51.312;7.378;2022-08-18T10:31:24;97280.28;;;23.40;100.00
5872;BME280;2962;51.312;7.378;2022-08-18T10:34:04;97284.00;;;23.37;100.00
5872;BME280;2962;51.312;7.378;2022-08-18T10:36:38;97284.34;;;22.86;100.00
5872;BME280;2962;51.312;7.378;2022-08-18T10:39:10;97285.38;;;23.02;100.00
5872;BME280;2962;51.312;7.378;2022-08-18T10:41:37;97276.38;;;23.29;100.00
5872;BME280;2962;51.312;7.378;2022-08-18T10:44:13;97287.81;;;23.22;100.00
5872;BME280;2962;51.312;7.378;2022-08-18T10:46:42;97271.09;;;23.62;100.00
5872;BME280;2962;51.312;7.378;2022-08-18T10:51:50;97282.88;;;23.75;100.00
5872;BME280;2962;51.312;7.378;2022-08-18T10:54:37;97283.41;;;23.43;100.00
5872;BME280;2962;51.312;7.378;2022-08-18T11:00:12;97289.66;;;22.72;100.00
5872;BME280;2962;51.312;7.378;2022-08-18T11:05:17;97296.22;;;22.21;100.00
5872;BME280;2962;51.312;7.378;2022-08-18T11:07:48;97287.78;;;22.12;100.00
5872;BME280;2962;51.312;7.378;2022-08-18T11:10:22;97289.66;;;21.80;100.00
5872;BME280;2962;51.312;7.378;2022-08-18T11:13:32;97279.44;;;21.77;100.00
5872;BME280;2962;51.312;7.378;2022-08-18T11:16:27;97289.97;;;21.95;100.00
5872;BME280;2962;51.312;7.378;2022-08-18T11:19:06;97269.72;;;22.07;100.00
5872;BME280;2962;51.312;7.378;2022-08-18T11:24:14;97278.09;;;22.51;100.00
5872;BME280;2962;51.312;7.378;2022-08-18T11:26:46;97278.22;;;22.48;100.00
5872;BME280;2962;51.312;7.378;2022-08-18T11:29:30;97282.06;;;22.41;100.00
5872;BME280;2962;51.312;7.378;2022-08-18T11:32:04;97281.13;;;22.66;100.00
5872;BME280;2962;51.312;7.378;2022-08-18T11:34:43;97279.97;;;22.54;100.00
5872;BME280;2962;51.312;7.378;2022-08-18T11:37:29;97264.84;;;22.77;100.00
5872;BME280;2962;51.312;7.378;2022-08-18T11:39:58;97273.00;;;22.72;100.00
5872;BME280;2962;51.312;7.378;2022-08-18T11:42:31;97260.84;;;23.00;100.00
5872;BME280;2962;51.312;7.378;2022-08-18T11:45:05;97263.44;;;23.94;100.00
5872;BME280;2962;51.312;7.378;2022-08-18T11:47:31;97260.81;;;23.90;100.00
5872;BME280;2962;51.312;7.378;2022-08-18T11:50:10;97254.19;;;24.15;100.00
5872;BME280;2962;51.312;7.378;2022-08-18T11:52:51;97257.28;;;24.08;100.00
5872;BME280;2962;51.312;7.378;2022-08-18T11:55:29;97256.38;;;24.29;100.00
5872;BME280;2962;51.312;7.378;2022-08-18T11:57:56;97258.81;;;24.73;100.00
5872;BME280;2962;51.312;7.378;2022-08-18T12:00:42;97263.13;;;25.59;100.00
5872;BME280;2962;51.312;7.378;2022-08-18T12:03:29;97259.22;;;25.42;100.00
5872;BME280;2962;51.312;7.378;2022-08-18T12:05:58;97257.59;;;25.26;100.00
5872;BME280;2962;51.312;7.378;2022-08-18T12:08:30;97244.47;;;25.08;100.00
5872;BME280;2962;51.312;7.378;2022-08-18T12:11:18;97239.81;;;24.44;100.00
5872;BME280;2962;51.312;7.378;2022-08-18T12:13:47;97234.25;;;24.53;100.00
5872;BME280;2962;51.312;7.378;2022-08-18T12:16:16;97237.03;;;24.53;100.00
5872;BME280;2962;51.312;7.378;2022-08-18T12:18:54;97237.78;;;25.05;100.00
5872;BME280;2962;51.312;7.378;2022-08-18T12:21:20;97236.44;;;25.10;100.00
5872;BME280;2962;51.312;7.378;2022-08-18T12:23:47;97233.78;;;25.06;100.00
5872;BME280;2962;51.312;7.378;2022-08-18T12:26:12;97247.72;;;24.46;100.00
5872;BME280;2962;51.312;7.378;2022-08-18T12:28:37;97246.91;;;23.72;100.00
5872;BME280;2962;51.312;7.378;2022-08-18T12:31:03;97251.41;;;23.97;100.00
5872;BME280;2962;51.312;7.378;2022-08-18T12:33:29;97250.44;;;23.91;100.00
5872;BME280;2962;51.312;7.378;2022-08-18T12:35:54;97266.28;;;24.40;100.00
5872;BME280;2962;51.312;7.378;2022-08-18T12:38:19;97276.31;;;24.28;100.00
5872;BME280;2962;51.312;7.378;2022-08-18T12:40:44;97287.91;;;24.08;100.00
5872;BME280;2962;51.312;7.378;2022-08-18T12:43:10;97292.84;;;23.95;100.00
5872;BME280;2962;51.312;7.378;2022-08-18T12:45:35;97295.03;;;24.18;100.00
5872;BME280;2962;51.312;7.378;2022-08-18T12:48:01;97285.59;;;24.34;100.00
5872;BME280;2962;51.312;7.378;2022-08-18T12:50:27;97282.19;;;24.30;100.00
5872;BME280;2962;51.312;7.378;2022-08-18T12:52:52;97285.88;;;24.64;100.00
5872;BME280;2962;51.312;7.378;2022-08-18T12:55:17;97279.25;;;24.61;100.00
5872;BME280;2962;51.312;7.378;2022-08-18T12:57:42;97268.53;;;24.78;100.00
5872;BME280;2962;51.312;7.378;2022-08-18T13:00:08;97259.81;;;25.46;100.00
5872;BME280;2962;51.312;7.378;2022-08-18T13:02:34;97251.97;;;25.59;100.00
5872;BME280;2962;51.312;7.378;2022-08-18T13:04:59;97248.66;;;25.46;100.00
5872;BME280;2962;51.312;7.378;2022-08-18T13:07:25;97242.69;;;25.86;100.00
5872;BME280;2962;51.312;7.378;2022-08-18T13:09:50;97240.09;;;26.21;100.00
5872;BME280;2962;51.312;7.378;2022-08-18T13:12:16;97236.31;;;26.63;100.00
5872;BME280;2962;51.312;7.378;2022-08-18T13:14:43;97226.72;;;26.64;100.00
5872;BME280;2962;51.312;7.378;2022-08-18T13:17:09;97229.63;;;25.92;100.00
5872;BME280;2962;51.312;7.378;2022-08-18T13:19:35;97233.19;;;26.32;100.00
5872;BME280;2962;51.312;7.378;2022-08-18T13:22:00;97235.81;;;25.96;100.00
5872;BME280;2962;51.312;7.378;2022-08-18T13:24:25;97220.03;;;26.08;100.00
5872;BME280;2962;51.312;7.378;2022-08-18T13:26:51;97224.31;;;26.18;100.00
5872;BME280;2962;51.312;7.378;2022-08-18T13:29:17;97220.81;;;26.77;100.00
5872;BME280;2962;51.312;7.378;2022-08-18T13:31:43;97224.56;;;26.74;100.00
5872;BME280;2962;51.312;7.378;2022-08-18T13:34:09;97223.97;;;25.77;100.00
5872;BME280;2962;51.312;7.378;2022-08-18T13:36:35;97226.34;;;25.13;100.00
5872;BME280;2962;51.312;7.378;2022-08-18T13:39:11;97221.84;;;25.06;100.00
5872;BME280;2962;51.312;7.378;2022-08-18T13:41:37;97217.28;;;24.84;100.00
5872;BME280;2962;51.312;7.378;2022-08-18T13:44:02;97213.25;;;24.85;100.00
5872;BME280;2962;51.312;7.378;2022-08-18T13:46:27;97207.28;;;24.59;100.00
5872;BME280;2962;51.312;7.378;2022-08-18T13:48:53;97200.72;;;24.81;100.00
5872;BME280;2962;51.312;7.378;2022-08-18T13:51:22;97211.09;;;24.80;100.00
5872;BME280;2962;51.312;7.378;2022-08-18T13:53:47;97204.53;;;24.32;100.00
5872;BME280;2962;51.312;7.378;2022-08-18T13:56:13;97216.44;;;23.86;100.00
5872;BME280;2962;51.312;7.378;2022-08-18T13:58:38;97201.56;;;23.53;100.00
5872;BME280;2962;51.312;7.378;2022-08-18T14:01:06;97204.97;;;23.57;100.00
5872;BME280;2962;51.312;7.378;2022-08-18T14:03:32;97210.06;;;23.58;100.00
5872;BME280;2962;51.312;7.378;2022-08-18T14:05:59;97207.47;;;23.82;100.00
5872;BME280;2962;51.312;7.378;2022-08-18T14:08:27;97210.59;;;24.03;100.00
5872;BME280;2962;51.312;7.378;2022-08-18T14:10:55;97212.44;;;24.06;100.00
5872;BME280;2962;51.312;7.378;2022-08-18T14:13:21;97212.44;;;24.06;100.00
5872;BME280;2962;51.312;7.378;2022-08-18T14:15:47;97213.69;;;24.14;100.00
5872;BME280;2962;51.312;7.378;2022-08-18T14:18:13;97212.28;;;24.46;100.00
5872;BME280;2962;51.312;7.378;2022-08-18T14:20:39;97213.28;;;25.52;100.00
5872;BME280;2962;51.312;7.378;2022-08-18T14:23:23;97212.97;;;25.74;100.00
5872;BME280;2962;51.312;7.378;2022-08-18T14:26:07;97222.31;;;26.34;100.00
5872;BME280;2962;51.312;7.378;2022-08-18T14:28:51;97214.91;;;25.92;100.00
5872;BME280;2962;51.312;7.378;2022-08-18T14:31:16;97218.56;;;25.98;100.00
5872;BME280;2962;51.312;7.378;2022-08-18T14:33:43;97209.44;;;25.73;100.00
5872;BME280;2962;51.312;7.378;2022-08-18T14:36:09;97218.09;;;25.51;100.00
5872;BME280;2962;51.312;7.378;2022-08-18T14:38:34;97221.94;;;25.54;100.00
5872;BME280;2962;51.312;7.378;2022-08-18T14:41:03;97219.41;;;25.89;100.00